sensor_id;sensor_type;location;lat;lon;timestamp;P1;durP1;ratioP1;P2;durP2;ratioP2
75087;SDS011;63664;44.868;40.600;2023-03-01T00:01:49;25.40;;;12.20;;
75087;SDS011;63664;44.868;40.600;2023-03-01T00:04:17;19.23;;;9.55;;
75087;SDS011;63664;44.868;40.600;2023-03-01T00:06:47;13.80;;;7.38;;
75087;SDS011;63664;44.868;40.600;2023-03-01T00:09:13;24.27;;;10.85;;
75087;SDS011;63664;44.868;40.600;2023-03-01T00:11:43;25.75;;;11.07;;
75087;SDS011;63664;44.868;40.600;2023-03-01T00:14:12;20.02;;;9.98;;
75087;SDS011;63664;44.868;40.600;2023-03-01T00:16:43;22.13;;;9.95;;
75087;SDS011;63664;44.868;40.600;2023-03-01T00:19:15;20.77;;;9.35;;
75087;SDS011;63664;44.868;40.600;2023-03-01T00:21:47;11.57;;;5.68;;
75087;SDS011;63664;44.868;40.600;2023-03-01T00:24:17;20.63;;;10.02;;
75087;SDS011;63664;44.868;40.600;2023-03-01T00:26:46;27.02;;;11.35;;
75087;SDS011;63664;44.868;40.600;2023-03-01T00:29:12;25.45;;;11.95;;
75087;SDS011;63664;44.868;40.600;2023-03-01T00:31:39;23.05;;;12.05;;
75087;SDS011;63664;44.868;40.600;2023-03-01T00:34:08;25.67;;;10.65;;
75087;SDS011;63664;44.868;40.600;2023-03-01T00:36:38;23.48;;;11.25;;
75087;SDS011;63664;44.868;40.600;2023-03-01T00:39:05;26.80;;;12.73;;
75087;SDS011;63664;44.868;40.600;2023-03-01T00:41:38;19.38;;;10.20;;
75087;SDS011;63664;44.868;40.600;2023-03-01T00:44:08;24.73;;;11.13;;
75087;SDS011;63664;44.868;40.600;2023-03-01T00:46:35;23.73;;;11.70;;
75087;SDS011;63664;44.868;40.600;2023-03-01T00:49:04;25.83;;;11.90;;
75087;SDS011;63664;44.868;40.600;2023-03-01T00:51:30;16.02;;;8.60;;
75087;SDS011;63664;44.868;40.600;2023-03-01T00:54:00;20.35;;;9.32;;
75087;SDS011;63664;44.868;40.600;2023-03-01T00:56:30;19.17;;;9.68;;
75087;SDS011;63664;44.868;40.600;2023-03-01T00:58:59;23.75;;;10.95;;
75087;SDS011;63664;44.868;40.600;2023-03-01T01:01:27;23.80;;;11.52;;
75087;SDS011;63664;44.868;40.600;2023-03-01T01:04:04;20.30;;;9.60;;
75087;SDS011;63664;44.868;40.600;2023-03-01T01:06:45;20.80;;;9.48;;
75087;SDS011;63664;44.868;40.600;2023-03-01T01:09:14;23.48;;;11.13;;
75087;SDS011;63664;44.868;40.600;2023-03-01T01:11:43;24.05;;;11.18;;
75087;SDS011;63664;44.868;40.600;2023-03-01T01:14:14;20.95;;;10.70;;
75087;SDS011;63664;44.868;40.600;2023-03-01T01:16:41;17.55;;;8.93;;
75087;SDS011;63664;44.868;40.600;2023-03-01T01:19:09;21.27;;;8.93;;
75087;SDS011;63664;44.868;40.600;2023-03-01T01:21:39;21.58;;;10.85;;
75087;SDS011;63664;44.868;40.600;2023-03-01T01:24:08;25.10;;;11.95;;
75087;SDS011;63664;44.868;40.600;2023-03-01T01:26:35;25.70;;;10.43;;
75087;SDS011;63664;44.868;40.600;2023-03-01T01:29:05;25.50;;;11.35;;
75087;SDS011;63664;44.868;40.600;2023-03-01T01:31:32;23.73;;;10.95;;
75087;SDS011;63664;44.868;40.600;2023-03-01T01:34:00;23.42;;;11.27;;
75087;SDS011;63664;44.868;40.600;2023-03-01T01:36:28;19.80;;;10.30;;
75087;SDS011;63664;44.868;40.600;2023-03-01T01:38:59;23.60;;;11.10;;
75087;SDS011;63664;44.868;40.600;2023-03-01T01:41:29;23.05;;;11.00;;
75087;SDS011;63664;44.868;40.600;2023-03-01T01:44:42;24.88;;;13.35;;
75087;SDS011;63664;44.868;40.600;2023-03-01T01:46:43;25.73;;;11.68;;
75087;SDS011;63664;44.868;40.600;2023-03-01T01:49:38;27.35;;;12.75;;
75087;SDS011;63664;44.868;40.600;2023-03-01T01:52:22;24.33;;;11.50;;
75087;SDS011;63664;44.868;40.600;2023-03-01T01:57:22;21.35;;;11.43;;
75087;SDS011;63664;44.868;40.600;2023-03-01T01:59:54;21.60;;;10.50;;
75087;SDS011;63664;44.868;40.600;2023-03-01T02:02:25;16.80;;;8.98;;
75087;SDS011;63664;44.868;40.600;2023-03-01T02:07:29;18.83;;;10.00;;
75087;SDS011;63664;44.868;40.600;2023-03-01T02:09:56;24.80;;;11.52;;
75087;SDS011;63664;44.868;40.600;2023-03-01T02:12:23;25.05;;;11.32;;
75087;SDS011;63664;44.868;40.600;2023-03-01T02:14:51;23.85;;;11.15;;
75087;SDS011;63664;44.868;40.600;2023-03-01T02:17:17;27.85;;;12.65;;
75087;SDS011;63664;44.868;40.600;2023-03-01T02:22:33;24.52;;;12.05;;
75087;SDS011;63664;44.868;40.600;2023-03-01T02:30:45;22.17;;;11.00;;
75087;SDS011;63664;44.868;40.600;2023-03-01T02:33:34;26.50;;;12.80;;
75087;SDS011;63664;44.868;40.600;2023-03-01T02:36:45;27.13;;;12.77;;
75087;SDS011;63664;44.868;40.600;2023-03-01T02:38:56;25.02;;;11.48;;
75087;SDS011;63664;44.868;40.600;2023-03-01T02:41:24;17.75;;;9.82;;
75087;SDS011;63664;44.868;40.600;2023-03-01T02:43:56;23.45;;;11.05;;
75087;SDS011;63664;44.868;40.600;2023-03-01T02:46:23;21.60;;;11.15;;
75087;SDS011;63664;44.868;40.600;2023-03-01T02:48:52;23.40;;;10.75;;
75087;SDS011;63664;44.868;40.600;2023-03-01T02:56:49;22.08;;;11.40;;
75087;SDS011;63664;44.868;40.600;2023-03-01T02:59:18;20.00;;;11.07;;
75087;SDS011;63664;44.868;40.600;2023-03-01T03:01:50;23.70;;;12.77;;
75087;SDS011;63664;44.868;40.600;2023-03-01T03:04:19;22.15;;;11.73;;
75087;SDS011;63664;44.868;40.600;2023-03-01T03:06:50;19.75;;;10.55;;
75087;SDS011;63664;44.868;40.600;2023-03-01T03:09:22;20.08;;;10.82;;
75087;SDS011;63664;44.868;40.600;2023-03-01T03:11:48;22.42;;;11.50;;
75087;SDS011;63664;44.868;40.600;2023-03-01T03:14:16;22.17;;;11.18;;
75087;SDS011;63664;44.868;40.600;2023-03-01T03:16:48;22.38;;;11.95;;
75087;SDS011;63664;44.868;40.600;2023-03-01T03:19:16;23.33;;;10.35;;
75087;SDS011;63664;44.868;40.600;2023-03-01T03:21:46;21.50;;;10.77;;
75087;SDS011;63664;44.868;40.600;2023-03-01T03:24:15;22.77;;;11.45;;
75087;SDS011;63664;44.868;40.600;2023-03-01T03:26:41;21.38;;;11.32;;
75087;SDS011;63664;44.868;40.600;2023-03-01T03:29:10;24.05;;;12.90;;
75087;SDS011;63664;44.868;40.600;2023-03-01T03:31:36;19.27;;;10.10;;
75087;SDS011;63664;44.868;40.600;2023-03-01T03:34:02;20.95;;;10.85;;
75087;SDS011;63664;44.868;40.600;2023-03-01T03:36:31;21.05;;;11.02;;
75087;SDS011;63664;44.868;40.600;2023-03-01T03:38:57;19.25;;;10.80;;
75087;SDS011;63664;44.868;40.600;2023-03-01T03:41:23;23.48;;;11.50;;
75087;SDS011;63664;44.868;40.600;2023-03-01T03:43:50;23.60;;;12.38;;
75087;SDS011;63664;44.868;40.600;2023-03-01T03:46:18;25.42;;;12.00;;
75087;SDS011;63664;44.868;40.600;2023-03-01T03:48:45;19.55;;;10.07;;
75087;SDS011;63664;44.868;40.600;2023-03-01T03:51:17;21.77;;;11.65;;
75087;SDS011;63664;44.868;40.600;2023-03-01T03:53:45;20.02;;;10.57;;
75087;SDS011;63664;44.868;40.600;2023-03-01T03:56:13;25.77;;;11.02;;
75087;SDS011;63664;44.868;40.600;2023-03-01T03:58:40;24.65;;;12.45;;
75087;SDS011;63664;44.868;40.600;2023-03-01T04:01:06;18.80;;;9.95;;
75087;SDS011;63664;44.868;40.600;2023-03-01T04:03:38;24.00;;;11.85;;
75087;SDS011;63664;44.868;40.600;2023-03-01T04:06:14;21.25;;;11.63;;
75087;SDS011;63664;44.868;40.600;2023-03-01T04:08:42;21.27;;;10.90;;
75087;SDS011;63664;44.868;40.600;2023-03-01T04:11:09;23.65;;;12.75;;
75087;SDS011;63664;44.868;40.600;2023-03-01T04:13:54;23.55;;;12.77;;
75087;SDS011;63664;44.868;40.600;2023-03-01T04:16:22;23.48;;;11.43;;
75087;SDS011;63664;44.868;40.600;2023-03-01T04:18:54;23.27;;;11.25;;
75087;SDS011;63664;44.868;40.600;2023-03-01T04:21:22;31.67;;;12.75;;
75087;SDS011;63664;44.868;40.600;2023-03-01T04:23:49;25.70;;;13.15;;
75087;SDS011;63664;44.868;40.600;2023-03-01T04:26:18;25.55;;;12.77;;
75087;SDS011;63664;44.868;40.600;2023-03-01T04:28:48;20.75;;;11.63;;
75087;SDS011;63664;44.868;40.600;2023-03-01T04:33:50;20.60;;;10.15;;
75087;SDS011;63664;44.868;40.600;2023-03-01T04:36:19;20.60;;;10.75;;
75087;SDS011;63664;44.868;40.600;2023-03-01T04:38:50;23.05;;;11.80;;
75087;SDS011;63664;44.868;40.600;2023-03-01T04:41:17;16.75;;;9.68;;
75087;SDS011;63664;44.868;40.600;2023-03-01T04:43:45;23.75;;;12.23;;
75087;SDS011;63664;44.868;40.600;2023-03-01T04:46:13;23.50;;;11.50;;
75087;SDS011;63664;44.868;40.600;2023-03-01T04:48:42;26.95;;;12.35;;
75087;SDS011;63664;44.868;40.600;2023-03-01T04:51:10;23.33;;;10.40;;
75087;SDS011;63664;44.868;40.600;2023-03-01T04:56:11;18.92;;;9.65;;
75087;SDS011;63664;44.868;40.600;2023-03-01T04:58:39;21.33;;;11.27;;
75087;SDS011;63664;44.868;40.600;2023-03-01T05:01:13;19.58;;;11.05;;
75087;SDS011;63664;44.868;40.600;2023-03-01T05:03:48;21.90;;;10.65;;
75087;SDS011;63664;44.868;40.600;2023-03-01T05:08:44;19.48;;;9.80;;
75087;SDS011;63664;44.868;40.600;2023-03-01T05:11:11;20.48;;;10.65;;
75087;SDS011;63664;44.868;40.600;2023-03-01T05:13:38;20.65;;;10.13;;
75087;SDS011;63664;44.868;40.600;2023-03-01T05:16:05;20.77;;;11.27;;
75087;SDS011;63664;44.868;40.600;2023-03-01T05:18:38;16.58;;;8.13;;
75087;SDS011;63664;44.868;40.600;2023-03-01T05:21:11;20.38;;;10.52;;
75087;SDS011;63664;44.868;40.600;2023-03-01T05:23:41;20.02;;;10.45;;
75087;SDS011;63664;44.868;40.600;2023-03-01T05:26:08;23.38;;;11.55;;
75087;SDS011;63664;44.868;40.600;2023-03-01T05:28:38;23.08;;;11.82;;
75087;SDS011;63664;44.868;40.600;2023-03-01T05:31:07;23.20;;;11.30;;
75087;SDS011;63664;44.868;40.600;2023-03-01T05:33:41;18.52;;;9.73;;
75087;SDS011;63664;44.868;40.600;2023-03-01T05:36:09;22.48;;;11.82;;
75087;SDS011;63664;44.868;40.600;2023-03-01T05:38:35;17.45;;;9.05;;
75087;SDS011;63664;44.868;40.600;2023-03-01T05:41:02;23.98;;;11.48;;
75087;SDS011;63664;44.868;40.600;2023-03-01T05:43:31;18.95;;;9.73;;
75087;SDS011;63664;44.868;40.600;2023-03-01T05:46:00;19.42;;;10.65;;
75087;SDS011;63664;44.868;40.600;2023-03-01T05:48:26;21.25;;;10.30;;
75087;SDS011;63664;44.868;40.600;2023-03-01T05:50:57;16.83;;;9.05;;
75087;SDS011;63664;44.868;40.600;2023-03-01T05:53:26;22.60;;;10.95;;
75087;SDS011;63664;44.868;40.600;2023-03-01T05:55:55;17.88;;;8.93;;
75087;SDS011;63664;44.868;40.600;2023-03-01T05:58:24;18.55;;;8.45;;
75087;SDS011;63664;44.868;40.600;2023-03-01T06:00:52;15.23;;;7.35;;
75087;SDS011;63664;44.868;40.600;2023-03-01T06:03:22;19.92;;;9.48;;
75087;SDS011;63664;44.868;40.600;2023-03-01T06:05:56;12.57;;;6.55;;
75087;SDS011;63664;44.868;40.600;2023-03-01T06:08:25;14.65;;;8.32;;
75087;SDS011;63664;44.868;40.600;2023-03-01T06:10:52;15.32;;;7.15;;
75087;SDS011;63664;44.868;40.600;2023-03-01T06:13:19;13.65;;;7.72;;
75087;SDS011;63664;44.868;40.600;2023-03-01T06:15:45;18.13;;;7.70;;
75087;SDS011;63664;44.868;40.600;2023-03-01T06:18:11;16.45;;;7.03;;
75087;SDS011;63664;44.868;40.600;2023-03-01T06:20:38;13.52;;;6.85;;
75087;SDS011;63664;44.868;40.600;2023-03-01T06:23:04;13.38;;;7.15;;
75087;SDS011;63664;44.868;40.600;2023-03-01T06:25:31;11.93;;;6.93;;
75087;SDS011;63664;44.868;40.600;2023-03-01T06:27:58;13.68;;;7.93;;
75087;SDS011;63664;44.868;40.600;2023-03-01T06:30:25;16.00;;;8.10;;
75087;SDS011;63664;44.868;40.600;2023-03-01T06:32:54;10.82;;;6.70;;
75087;SDS011;63664;44.868;40.600;2023-03-01T06:35:29;13.48;;;7.43;;
75087;SDS011;63664;44.868;40.600;2023-03-01T06:37:56;13.77;;;7.82;;
75087;SDS011;63664;44.868;40.600;2023-03-01T06:40:27;13.50;;;7.15;;
75087;SDS011;63664;44.868;40.600;2023-03-01T06:42:53;14.15;;;7.45;;
75087;SDS011;63664;44.868;40.600;2023-03-01T06:45:20;16.65;;;8.55;;
75087;SDS011;63664;44.868;40.600;2023-03-01T06:47:47;12.82;;;7.85;;
75087;SDS011;63664;44.868;40.600;2023-03-01T06:50:17;13.05;;;6.85;;
75087;SDS011;63664;44.868;40.600;2023-03-01T06:52:44;13.68;;;7.25;;
75087;SDS011;63664;44.868;40.600;2023-03-01T06:55:16;12.60;;;6.57;;
75087;SDS011;63664;44.868;40.600;2023-03-01T06:57:44;14.90;;;7.38;;
75087;SDS011;63664;44.868;40.600;2023-03-01T07:00:11;14.02;;;7.22;;
75087;SDS011;63664;44.868;40.600;2023-03-01T07:02:41;12.30;;;5.82;;
75087;SDS011;63664;44.868;40.600;2023-03-01T07:05:07;14.95;;;7.40;;
75087;SDS011;63664;44.868;40.600;2023-03-01T07:07:33;16.15;;;7.57;;
75087;SDS011;63664;44.868;40.600;2023-03-01T07:09:59;12.73;;;6.40;;
75087;SDS011;63664;44.868;40.600;2023-03-01T07:12:26;10.07;;;5.53;;
75087;SDS011;63664;44.868;40.600;2023-03-01T07:14:54;12.05;;;5.90;;
75087;SDS011;63664;44.868;40.600;2023-03-01T07:17:21;11.68;;;6.03;;
75087;SDS011;63664;44.868;40.600;2023-03-01T07:19:52;12.07;;;6.53;;
75087;SDS011;63664;44.868;40.600;2023-03-01T07:22:19;10.60;;;5.78;;
75087;SDS011;63664;44.868;40.600;2023-03-01T07:24:47;8.57;;;5.43;;
75087;SDS011;63664;44.868;40.600;2023-03-01T07:27:13;10.02;;;5.70;;
75087;SDS011;63664;44.868;40.600;2023-03-01T07:29:40;9.85;;;5.32;;
75087;SDS011;63664;44.868;40.600;2023-03-01T07:32:06;9.82;;;5.63;;
75087;SDS011;63664;44.868;40.600;2023-03-01T07:34:32;10.95;;;6.78;;
75087;SDS011;63664;44.868;40.600;2023-03-01T07:36:59;11.60;;;5.20;;
75087;SDS011;63664;44.868;40.600;2023-03-01T07:39:25;10.68;;;5.15;;
75087;SDS011;63664;44.868;40.600;2023-03-01T07:41:51;10.27;;;5.93;;
75087;SDS011;63664;44.868;40.600;2023-03-01T07:44:21;11.30;;;6.93;;
75087;SDS011;63664;44.868;40.600;2023-03-01T07:46:53;11.07;;;6.03;;
75087;SDS011;63664;44.868;40.600;2023-03-01T07:49:21;12.60;;;6.40;;
75087;SDS011;63664;44.868;40.600;2023-03-01T07:51:50;12.35;;;6.57;;
75087;SDS011;63664;44.868;40.600;2023-03-01T07:54:19;10.38;;;5.40;;
75087;SDS011;63664;44.868;40.600;2023-03-01T07:56:48;14.95;;;6.88;;
75087;SDS011;63664;44.868;40.600;2023-03-01T07:59:19;9.60;;;6.28;;
75087;SDS011;63664;44.868;40.600;2023-03-01T08:01:45;12.95;;;6.93;;
75087;SDS011;63664;44.868;40.600;2023-03-01T08:04:12;16.38;;;6.75;;
75087;SDS011;63664;44.868;40.600;2023-03-01T08:06:41;12.30;;;6.38;;
75087;SDS011;63664;44.868;40.600;2023-03-01T08:09:09;9.02;;;5.85;;
75087;SDS011;63664;44.868;40.600;2023-03-01T08:11:38;8.68;;;5.00;;
75087;SDS011;63664;44.868;40.600;2023-03-01T08:14:05;9.82;;;5.72;;
75087;SDS011;63664;44.868;40.600;2023-03-01T08:16:36;10.73;;;5.78;;
75087;SDS011;63664;44.868;40.600;2023-03-01T08:19:09;14.60;;;6.80;;
75087;SDS011;63664;44.868;40.600;2023-03-01T08:21:37;10.57;;;5.70;;
75087;SDS011;63664;44.868;40.600;2023-03-01T08:24:04;15.32;;;6.88;;
75087;SDS011;63664;44.868;40.600;2023-03-01T08:26:38;10.45;;;6.53;;
75087;SDS011;63664;44.868;40.600;2023-03-01T08:29:04;11.95;;;6.22;;
75087;SDS011;63664;44.868;40.600;2023-03-01T08:31:31;13.35;;;6.43;;
75087;SDS011;63664;44.868;40.600;2023-03-01T08:34:01;11.15;;;6.25;;
75087;SDS011;63664;44.868;40.600;2023-03-01T08:36:35;12.55;;;6.95;;
75087;SDS011;63664;44.868;40.600;2023-03-01T08:39:06;15.98;;;8.13;;
75087;SDS011;63664;44.868;40.600;2023-03-01T08:41:35;13.27;;;6.78;;
75087;SDS011;63664;44.868;40.600;2023-03-01T08:44:05;9.68;;;4.63;;
75087;SDS011;63664;44.868;40.600;2023-03-01T08:46:34;11.60;;;6.72;;
75087;SDS011;63664;44.868;40.600;2023-03-01T08:49:07;13.98;;;7.50;;
75087;SDS011;63664;44.868;40.600;2023-03-01T08:51:42;15.23;;;7.18;;
75087;SDS011;63664;44.868;40.600;2023-03-01T08:54:13;11.98;;;7.00;;
75087;SDS011;63664;44.868;40.600;2023-03-01T08:56:43;12.60;;;6.80;;
75087;SDS011;63664;44.868;40.600;2023-03-01T08:59:13;11.95;;;6.90;;
75087;SDS011;63664;44.868;40.600;2023-03-01T09:01:40;11.80;;;6.07;;
75087;SDS011;63664;44.868;40.600;2023-03-01T09:04:11;12.35;;;6.13;;
75087;SDS011;63664;44.868;40.600;2023-03-01T09:06:38;11.05;;;5.72;;
75087;SDS011;63664;44.868;40.600;2023-03-01T09:09:10;10.98;;;5.47;;
75087;SDS011;63664;44.868;40.600;2023-03-01T09:11:42;10.23;;;6.25;;
75087;SDS011;63664;44.868;40.600;2023-03-01T09:14:09;14.60;;;6.85;;
75087;SDS011;63664;44.868;40.600;2023-03-01T09:16:38;12.15;;;6.10;;
75087;SDS011;63664;44.868;40.600;2023-03-01T09:19:07;11.57;;;6.55;;
75087;SDS011;63664;44.868;40.600;2023-03-01T09:21:37;13.32;;;5.72;;
75087;SDS011;63664;44.868;40.600;2023-03-01T09:24:03;9.60;;;5.13;;
75087;SDS011;63664;44.868;40.600;2023-03-01T09:26:30;10.02;;;5.68;;
75087;SDS011;63664;44.868;40.600;2023-03-01T09:28:59;13.07;;;5.97;;
75087;SDS011;63664;44.868;40.600;2023-03-01T09:31:30;9.40;;;5.43;;
75087;SDS011;63664;44.868;40.600;2023-03-01T09:33:57;11.73;;;5.65;;
75087;SDS011;63664;44.868;40.600;2023-03-01T09:36:23;14.88;;;6.72;;
75087;SDS011;63664;44.868;40.600;2023-03-01T09:38:52;11.50;;;5.30;;
75087;SDS011;63664;44.868;40.600;2023-03-01T09:41:31;9.10;;;5.55;;
75087;SDS011;63664;44.868;40.600;2023-03-01T09:44:03;12.73;;;5.78;;
75087;SDS011;63664;44.868;40.600;2023-03-01T09:46:50;8.52;;;5.38;;
75087;SDS011;63664;44.868;40.600;2023-03-01T09:49:21;9.40;;;5.65;;
75087;SDS011;63664;44.868;40.600;2023-03-01T09:54:49;11.57;;;6.20;;
75087;SDS011;63664;44.868;40.600;2023-03-01T09:57:33;23.20;;;7.90;;
75087;SDS011;63664;44.868;40.600;2023-03-01T10:00:11;11.07;;;5.05;;
75087;SDS011;63664;44.868;40.600;2023-03-01T10:03:17;10.20;;;5.25;;
75087;SDS011;63664;44.868;40.600;2023-03-01T10:08:48;11.75;;;5.13;;
75087;SDS011;63664;44.868;40.600;2023-03-01T10:11:29;13.32;;;5.85;;
75087;SDS011;63664;44.868;40.600;2023-03-01T10:14:05;8.43;;;3.95;;
75087;SDS011;63664;44.868;40.600;2023-03-01T10:16:48;15.05;;;5.93;;
75087;SDS011;63664;44.868;40.600;2023-03-01T10:24:40;12.38;;;6.18;;
75087;SDS011;63664;44.868;40.600;2023-03-01T10:27:08;9.50;;;5.53;;
75087;SDS011;63664;44.868;40.600;2023-03-01T10:32:45;8.68;;;5.28;;
75087;SDS011;63664;44.868;40.600;2023-03-01T10:38:07;12.43;;;5.38;;
75087;SDS011;63664;44.868;40.600;2023-03-01T10:43:32;11.55;;;5.28;;
75087;SDS011;63664;44.868;40.600;2023-03-01T10:51:45;7.32;;;4.65;;
75087;SDS011;63664;44.868;40.600;2023-03-01T10:56:50;10.70;;;6.38;;
75087;SDS011;63664;44.868;40.600;2023-03-01T10:59:21;11.40;;;6.10;;
75087;SDS011;63664;44.868;40.600;2023-03-01T11:05:03;9.98;;;4.95;;
75087;SDS011;63664;44.868;40.600;2023-03-01T11:07:49;9.45;;;5.45;;
75087;SDS011;63664;44.868;40.600;2023-03-01T11:10:20;9.70;;;5.78;;
75087;SDS011;63664;44.868;40.600;2023-03-01T11:12:52;12.32;;;4.65;;
75087;SDS011;63664;44.868;40.600;2023-03-01T11:15:34;11.63;;;5.75;;
75087;SDS011;63664;44.868;40.600;2023-03-01T11:18:04;9.35;;;4.75;;
75087;SDS011;63664;44.868;40.600;2023-03-01T11:20:34;15.00;;;6.05;;
75087;SDS011;63664;44.868;40.600;2023-03-01T11:23:20;10.57;;;6.13;;
75087;SDS011;63664;44.868;40.600;2023-03-01T11:25:53;12.57;;;4.93;;
75087;SDS011;63664;44.868;40.600;2023-03-01T11:28:27;15.88;;;5.28;;
75087;SDS011;63664;44.868;40.600;2023-03-01T11:31:00;14.23;;;4.05;;
75087;SDS011;63664;44.868;40.600;2023-03-01T11:36:24;7.78;;;4.10;;
75087;SDS011;63664;44.868;40.600;2023-03-01T11:44:46;9.05;;;3.05;;
75087;SDS011;63664;44.868;40.600;2023-03-01T11:58:34;8.93;;;3.38;;
75087;SDS011;63664;44.868;40.600;2023-03-01T12:04:14;5.65;;;2.97;;
75087;SDS011;63664;44.868;40.600;2023-03-01T12:07:09;9.38;;;2.25;;
75087;SDS011;63664;44.868;40.600;2023-03-01T12:12:29;50.30;;;4.47;;
75087;SDS011;63664;44.868;40.600;2023-03-01T12:29:34;9.02;;;3.28;;
75087;SDS011;63664;44.868;40.600;2023-03-01T12:37:31;6.47;;;3.83;;
75087;SDS011;63664;44.868;40.600;2023-03-01T12:48:59;8.68;;;5.20;;
75087;SDS011;63664;44.868;40.600;2023-03-01T12:51:51;12.18;;;5.53;;
75087;SDS011;63664;44.868;40.600;2023-03-01T12:54:31;18.88;;;6.28;;
75087;SDS011;63664;44.868;40.600;2023-03-01T12:57:46;9.60;;;5.25;;
75087;SDS011;63664;44.868;40.600;2023-03-01T13:05:50;15.40;;;7.72;;
75087;SDS011;63664;44.868;40.600;2023-03-01T13:11:17;15.00;;;8.20;;
75087;SDS011;63664;44.868;40.600;2023-03-01T13:13:48;14.32;;;7.47;;
75087;SDS011;63664;44.868;40.600;2023-03-01T13:18:45;16.48;;;9.48;;
75087;SDS011;63664;44.868;40.600;2023-03-01T13:21:14;15.55;;;8.10;;
75087;SDS011;63664;44.868;40.600;2023-03-01T13:23:56;15.25;;;8.57;;
75087;SDS011;63664;44.868;40.600;2023-03-01T13:26:22;15.23;;;8.27;;
75087;SDS011;63664;44.868;40.600;2023-03-01T13:28:53;13.02;;;6.80;;
75087;SDS011;63664;44.868;40.600;2023-03-01T13:38:58;14.93;;;7.68;;
75087;SDS011;63664;44.868;40.600;2023-03-01T13:44:26;14.05;;;8.23;;
75087;SDS011;63664;44.868;40.600;2023-03-01T13:49:49;12.00;;;6.60;;
75087;SDS011;63664;44.868;40.600;2023-03-01T13:52:40;10.90;;;6.57;;
75087;SDS011;63664;44.868;40.600;2023-03-01T13:55:41;20.60;;;6.32;;
75087;SDS011;63664;44.868;40.600;2023-03-01T13:58:32;16.95;;;5.80;;
75087;SDS011;63664;44.868;40.600;2023-03-01T14:01:51;9.00;;;5.25;;
75087;SDS011;63664;44.868;40.600;2023-03-01T14:04:23;10.93;;;5.47;;
75087;SDS011;63664;44.868;40.600;2023-03-01T14:07:08;12.38;;;6.20;;
75087;SDS011;63664;44.868;40.600;2023-03-01T14:09:40;10.65;;;5.93;;
75087;SDS011;63664;44.868;40.600;2023-03-01T14:15:31;16.13;;;6.80;;
75087;SDS011;63664;44.868;40.600;2023-03-01T14:21:17;10.43;;;5.47;;
75087;SDS011;63664;44.868;40.600;2023-03-01T14:23:44;26.10;;;6.25;;
75087;SDS011;63664;44.868;40.600;2023-03-01T14:26:12;12.68;;;5.82;;
75087;SDS011;63664;44.868;40.600;2023-03-01T14:28:38;12.75;;;6.55;;
75087;SDS011;63664;44.868;40.600;2023-03-01T14:34:04;11.98;;;5.55;;
75087;SDS011;63664;44.868;40.600;2023-03-01T14:36:32;9.02;;;4.75;;
75087;SDS011;63664;44.868;40.600;2023-03-01T14:39:00;30.02;;;12.00;;
75087;SDS011;63664;44.868;40.600;2023-03-01T14:41:34;18.45;;;7.93;;
75087;SDS011;63664;44.868;40.600;2023-03-01T14:44:06;10.52;;;5.93;;
75087;SDS011;63664;44.868;40.600;2023-03-01T14:46:43;16.80;;;7.05;;
75087;SDS011;63664;44.868;40.600;2023-03-01T14:49:14;16.13;;;6.13;;
75087;SDS011;63664;44.868;40.600;2023-03-01T14:51:50;13.10;;;5.95;;
75087;SDS011;63664;44.868;40.600;2023-03-01T14:54:26;12.27;;;4.70;;
75087;SDS011;63664;44.868;40.600;2023-03-01T14:57:12;9.85;;;4.95;;
75087;SDS011;63664;44.868;40.600;2023-03-01T14:59:42;9.98;;;5.72;;
75087;SDS011;63664;44.868;40.600;2023-03-01T15:02:16;13.52;;;6.60;;
75087;SDS011;63664;44.868;40.600;2023-03-01T15:04:49;9.05;;;4.97;;
75087;SDS011;63664;44.868;40.600;2023-03-01T15:07:27;11.43;;;5.57;;
75087;SDS011;63664;44.868;40.600;2023-03-01T15:09:59;10.50;;;5.72;;
75087;SDS011;63664;44.868;40.600;2023-03-01T15:18:06;13.02;;;5.22;;
75087;SDS011;63664;44.868;40.600;2023-03-01T15:20:44;7.75;;;4.40;;
75087;SDS011;63664;44.868;40.600;2023-03-01T15:25:52;11.68;;;5.25;;
75087;SDS011;63664;44.868;40.600;2023-03-01T15:28:27;14.18;;;4.57;;
75087;SDS011;63664;44.868;40.600;2023-03-01T15:31:04;7.57;;;4.38;;
75087;SDS011;63664;44.868;40.600;2023-03-01T15:33:43;10.88;;;5.03;;
75087;SDS011;63664;44.868;40.600;2023-03-01T15:36:37;7.53;;;3.97;;
75087;SDS011;63664;44.868;40.600;2023-03-01T15:39:22;13.85;;;4.25;;
75087;SDS011;63664;44.868;40.600;2023-03-01T15:45:08;12.82;;;5.03;;
75087;SDS011;63664;44.868;40.600;2023-03-01T15:47:38;12.57;;;5.57;;
75087;SDS011;63664;44.868;40.600;2023-03-01T15:50:16;15.50;;;6.47;;
75087;SDS011;63664;44.868;40.600;2023-03-01T15:52:48;9.77;;;4.82;;
75087;SDS011;63664;44.868;40.600;2023-03-01T15:55:21;14.55;;;6.05;;
75087;SDS011;63664;44.868;40.600;2023-03-01T15:58:15;11.85;;;6.53;;
75087;SDS011;63664;44.868;40.600;2023-03-01T16:00:44;11.98;;;5.97;;
75087;SDS011;63664;44.868;40.600;2023-03-01T16:03:14;11.77;;;5.80;;
75087;SDS011;63664;44.868;40.600;2023-03-01T16:05:48;10.73;;;5.15;;
75087;SDS011;63664;44.868;40.600;2023-03-01T16:08:15;23.25;;;5.78;;
75087;SDS011;63664;44.868;40.600;2023-03-01T16:10:43;19.40;;;6.13;;
75087;SDS011;63664;44.868;40.600;2023-03-01T16:13:16;11.38;;;5.80;;
75087;SDS011;63664;44.868;40.600;2023-03-01T16:15:45;11.60;;;5.45;;
75087;SDS011;63664;44.868;40.600;2023-03-01T16:18:17;17.63;;;5.32;;
75087;SDS011;63664;44.868;40.600;2023-03-01T16:20:44;8.35;;;4.07;;
75087;SDS011;63664;44.868;40.600;2023-03-01T16:23:10;11.77;;;5.05;;
75087;SDS011;63664;44.868;40.600;2023-03-01T16:25:39;12.48;;;6.05;;
75087;SDS011;63664;44.868;40.600;2023-03-01T16:28:06;9.55;;;5.55;;
75087;SDS011;63664;44.868;40.600;2023-03-01T16:30:36;13.57;;;5.30;;
75087;SDS011;63664;44.868;40.600;2023-03-01T16:33:07;12.52;;;4.63;;
75087;SDS011;63664;44.868;40.600;2023-03-01T16:35:39;13.32;;;5.13;;
75087;SDS011;63664;44.868;40.600;2023-03-01T16:38:06;11.45;;;4.32;;
75087;SDS011;63664;44.868;40.600;2023-03-01T16:40:35;9.18;;;5.07;;
75087;SDS011;63664;44.868;40.600;2023-03-01T16:43:09;12.45;;;5.25;;
75087;SDS011;63664;44.868;40.600;2023-03-01T16:45:41;11.48;;;5.45;;
75087;SDS011;63664;44.868;40.600;2023-03-01T16:48:10;10.40;;;5.45;;
75087;SDS011;63664;44.868;40.600;2023-03-01T16:50:41;10.95;;;4.70;;
75087;SDS011;63664;44.868;40.600;2023-03-01T16:53:10;11.38;;;4.75;;
75087;SDS011;63664;44.868;40.600;2023-03-01T16:55:37;13.10;;;5.72;;
75087;SDS011;63664;44.868;40.600;2023-03-01T16:58:11;15.65;;;5.85;;
75087;SDS011;63664;44.868;40.600;2023-03-01T17:00:40;11.30;;;4.53;;
75087;SDS011;63664;44.868;40.600;2023-03-01T17:03:06;11.32;;;5.47;;
75087;SDS011;63664;44.868;40.600;2023-03-01T17:05:35;10.73;;;4.82;;
75087;SDS011;63664;44.868;40.600;2023-03-01T17:08:01;14.00;;;5.10;;
75087;SDS011;63664;44.868;40.600;2023-03-01T17:10:27;9.80;;;5.30;;
75087;SDS011;63664;44.868;40.600;2023-03-01T17:12:58;14.68;;;5.53;;
75087;SDS011;63664;44.868;40.600;2023-03-01T17:15:24;18.50;;;5.75;;
75087;SDS011;63664;44.868;40.600;2023-03-01T17:17:51;17.90;;;7.15;;
75087;SDS011;63664;44.868;40.600;2023-03-01T17:20:19;13.82;;;5.82;;